sensor_id;sensor_type;location;lat;lon;timestamp;pressure;altitude;pressure_sealevel;temperature;humidity
40982;BME280;26708;50.304;19.028;2022-08-19T00:01:38;97841.88;;;26.50;58.65
40982;BME280;26708;50.304;19.028;2022-08-19T00:04:39;97838.63;;;26.45;58.83
40982;BME280;26708;50.304;19.028;2022-08-19T00:07:42;97842.25;;;26.44;58.74
40982;BME280;26708;50.304;19.028;2022-08-19T00:10:43;97835.59;;;26.37;58.90
40982;BME280;26708;50.304;19.028;2022-08-19T00:13:47;97833.44;;;26.30;59.08
40982;BME280;26708;50.304;19.028;2022-08-19T00:16:49;97838.31;;;26.23;59.50
40982;BME280;26708;50.304;19.028;2022-08-19T00:19:51;97835.44;;;26.12;59.82
40982;BME280;26708;50.304;19.028;2022-08-19T00:22:52;97836.22;;;26.14;60.14
40982;BME280;26708;50.304;19.028;2022-08-19T00:25:55;97835.06;;;26.18;60.00
40982;BME280;26708;50.304;19.028;2022-08-19T00:28:57;97840.78;;;26.26;59.92
40982;BME280;26708;50.304;19.028;2022-08-19T00:31:57;97838.56;;;26.33;60.17
40982;BME280;26708;50.304;19.028;2022-08-19T00:35:00;97830.25;;;26.37;59.88
40982;BME280;26708;50.304;19.028;2022-08-19T00:38:02;97837.59;;;26.34;59.83
40982;BME280;26708;50.304;19.028;2022-08-19T00:41:03;97827.72;;;26.22;60.10
40982;BME280;26708;50.304;19.028;2022-08-19T00:44:08;97824.78;;;26.12;60.68
40982;BME280;26708;50.304;19.028;2022-08-19T00:47:10;97812.69;;;26.07;60.88
40982;BME280;26708;50.304;19.028;2022-08-19T00:50:15;97812.09;;;26.02;60.91
40982;BME280;26708;50.304;19.028;2022-08-19T00:53:20;97817.19;;;25.92;61.20
40982;BME280;26708;50.304;19.028;2022-08-19T00:56:22;97820.13;;;25.88;61.42
40982;BME280;26708;50.304;19.028;2022-08-19T00:59:24;97805.59;;;25.78;61.75
40982;BME280;26708;50.304;19.028;2022-08-19T01:02:26;97808.28;;;25.78;61.99
40982;BME280;26708;50.304;19.028;2022-08-19T01:05:28;97792.63;;;25.72;62.36
40982;BME280;26708;50.304;19.028;2022-08-19T01:08:33;97784.47;;;25.61;62.17
40982;BME280;26708;50.304;19.028;2022-08-19T01:11:36;97802.84;;;25.65;62.42
40982;BME280;26708;50.304;19.028;2022-08-19T01:14:39;97798.09;;;25.56;62.62
40982;BME280;26708;50.304;19.028;2022-08-19T01:17:41;97800.66;;;25.58;62.91
40982;BME280;26708;50.304;19.028;2022-08-19T01:20:43;97808.38;;;25.62;63.01
40982;BME280;26708;50.304;19.028;2022-08-19T01:23:44;97792.53;;;25.59;63.02
40982;BME280;26708;50.304;19.028;2022-08-19T01:26:47;97791.78;;;25.57;63.25
40982;BME280;26708;50.304;19.028;2022-08-19T01:29:48;97786.53;;;25.56;63.51
40982;BME280;26708;50.304;19.028;2022-08-19T01:32:50;97801.13;;;25.64;63.29
40982;BME280;26708;50.304;19.028;2022-08-19T01:35:51;97780.53;;;25.52;62.80
40982;BME280;26708;50.304;19.028;2022-08-19T01:38:53;97783.13;;;25.54;63.18
40982;BME280;26708;50.304;19.028;2022-08-19T01:42:00;97800.00;;;25.54;63.22
40982;BME280;26708;50.304;19.028;2022-08-19T01:45:04;97794.16;;;25.48;63.41
40982;BME280;26708;50.304;19.028;2022-08-19T01:48:08;97795.47;;;25.41;63.63
40982;BME280;26708;50.304;19.028;2022-08-19T01:51:11;97783.66;;;25.31;63.81
40982;BME280;26708;50.304;19.028;2022-08-19T01:54:13;97794.25;;;25.32;63.99
40982;BME280;26708;50.304;19.028;2022-08-19T01:57:15;97782.31;;;25.24;64.25
40982;BME280;26708;50.304;19.028;2022-08-19T02:00:19;97780.59;;;25.23;64.53
40982;BME280;26708;50.304;19.028;2022-08-19T02:03:23;97758.25;;;25.10;64.25
40982;BME280;26708;50.304;19.028;2022-08-19T02:06:24;97785.31;;;25.18;64.57
40982;BME280;26708;50.304;19.028;2022-08-19T02:09:24;97776.56;;;25.16;64.57
40982;BME280;26708;50.304;19.028;2022-08-19T02:12:25;97777.03;;;25.08;64.75
40982;BME280;26708;50.304;19.028;2022-08-19T02:15:27;97775.88;;;25.12;64.79
40982;BME280;26708;50.304;19.028;2022-08-19T02:18:28;97776.75;;;25.13;64.53
40982;BME280;26708;50.304;19.028;2022-08-19T02:21:30;97776.75;;;25.13;64.58
40982;BME280;26708;50.304;19.028;2022-08-19T02:24:31;97769.31;;;25.04;64.65
40982;BME280;26708;50.304;19.028;2022-08-19T02:27:32;97771.66;;;24.94;64.96
40982;BME280;26708;50.304;19.028;2022-08-19T02:30:34;97771.94;;;24.90;65.15
40982;BME280;26708;50.304;19.028;2022-08-19T02:33:35;97778.03;;;24.92;65.32
40982;BME280;26708;50.304;19.028;2022-08-19T02:36:36;97782.00;;;24.85;65.64
40982;BME280;26708;50.304;19.028;2022-08-19T02:39:40;97768.19;;;24.78;65.84
40982;BME280;26708;50.304;19.028;2022-08-19T02:42:44;97770.38;;;24.72;65.98
40982;BME280;26708;50.304;19.028;2022-08-19T02:45:49;97681.13;;;24.20;66.15
40982;BME280;26708;50.304;19.028;2022-08-19T02:48:52;97694.34;;;24.21;66.07
40982;BME280;26708;50.304;19.028;2022-08-19T02:51:53;97785.81;;;24.81;66.30
40982;BME280;26708;50.304;19.028;2022-08-19T02:54:54;97776.78;;;24.83;66.12
40982;BME280;26708;50.304;19.028;2022-08-19T02:57:57;97777.28;;;24.90;66.20
40982;BME280;26708;50.304;19.028;2022-08-19T03:00:58;97756.13;;;24.87;65.95
40982;BME280;26708;50.304;19.028;2022-08-19T03:04:01;97773.38;;;24.95;65.76
40982;BME280;26708;50.304;19.028;2022-08-19T03:07:02;97760.53;;;24.88;65.56
40982;BME280;26708;50.304;19.028;2022-08-19T03:10:04;97776.31;;;24.91;65.61
40982;BME280;26708;50.304;19.028;2022-08-19T03:13:06;97782.00;;;24.85;65.75
40982;BME280;26708;50.304;19.028;2022-08-19T03:16:07;97782.00;;;24.85;65.87
40982;BME280;26708;50.304;19.028;2022-08-19T03:19:08;97784.25;;;24.77;66.10
40982;BME280;26708;50.304;19.028;2022-08-19T03:22:09;97781.78;;;24.74;66.10
40982;BME280;26708;50.304;19.028;2022-08-19T03:25:09;97778.44;;;24.70;66.26
40982;BME280;26708;50.304;19.028;2022-08-19T03:28:14;97767.19;;;24.65;66.33
40982;BME280;26708;50.304;19.028;2022-08-19T03:31:18;97768.50;;;24.58;66.44
40982;BME280;26708;50.304;19.028;2022-08-19T03:34:22;97762.22;;;24.59;66.70
40982;BME280;26708;50.304;19.028;2022-08-19T03:37:26;97757.69;;;24.61;66.04
40982;BME280;26708;50.304;19.028;2022-08-19T03:40:27;97757.94;;;24.57;66.25
40982;BME280;26708;50.304;19.028;2022-08-19T03:43:30;97781.94;;;24.71;66.34
40982;BME280;26708;50.304;19.028;2022-08-19T03:46:33;97783.78;;;24.70;66.20
40982;BME280;26708;50.304;19.028;2022-08-19T03:49:34;97792.94;;;24.80;65.93
40982;BME280;26708;50.304;19.028;2022-08-19T03:52:35;97776.72;;;24.69;65.51
40982;BME280;26708;50.304;19.028;2022-08-19T03:55:40;97795.38;;;24.69;65.85
40982;BME280;26708;50.304;19.028;2022-08-19T03:58:41;97788.84;;;24.59;66.32
40982;BME280;26708;50.304;19.028;2022-08-19T04:01:43;97800.78;;;24.52;66.88
40982;BME280;26708;50.304;19.028;2022-08-19T04:04:44;97790.28;;;24.49;66.92
40982;BME280;26708;50.304;19.028;2022-08-19T04:07:45;97800.88;;;24.51;66.98
40982;BME280;26708;50.304;19.028;2022-08-19T04:10:49;97789.94;;;24.40;66.78
40982;BME280;26708;50.304;19.028;2022-08-19T04:13:51;97804.91;;;24.42;66.78
40982;BME280;26708;50.304;19.028;2022-08-19T04:16:55;97782.06;;;24.23;67.13
40982;BME280;26708;50.304;19.028;2022-08-19T04:19:56;97803.94;;;24.43;67.16
40982;BME280;26708;50.304;19.028;2022-08-19T04:22:57;97807.91;;;24.52;66.71
40982;BME280;26708;50.304;19.028;2022-08-19T04:25:58;97821.94;;;24.55;66.64
40982;BME280;26708;50.304;19.028;2022-08-19T04:29:01;97833.44;;;24.56;66.92
40982;BME280;26708;50.304;19.028;2022-08-19T04:32:04;97828.78;;;24.59;66.60
40982;BME280;26708;50.304;19.028;2022-08-19T04:35:06;97825.50;;;24.54;66.78
40982;BME280;26708;50.304;19.028;2022-08-19T04:38:08;97826.22;;;24.58;66.25
40982;BME280;26708;50.304;19.028;2022-08-19T04:41:09;97846.75;;;24.71;66.34
40982;BME280;26708;50.304;19.028;2022-08-19T04:44:32;97835.91;;;24.74;66.13
40982;BME280;26708;50.304;19.028;2022-08-19T04:47:34;97841.16;;;24.76;65.99
40982;BME280;26708;50.304;19.028;2022-08-19T04:50:42;97839.78;;;24.84;65.84
40982;BME280;26708;50.304;19.028;2022-08-19T04:53:43;97837.19;;;24.83;65.83
40982;BME280;26708;50.304;19.028;2022-08-19T04:56:44;97840.94;;;24.94;65.04
40982;BME280;26708;50.304;19.028;2022-08-19T04:59:48;97845.06;;;25.00;64.78
40982;BME280;26708;50.304;19.028;2022-08-19T05:02:49;97848.13;;;25.08;64.78
40982;BME280;26708;50.304;19.028;2022-08-19T05:05:50;97840.53;;;25.16;64.40
40982;BME280;26708;50.304;19.028;2022-08-19T05:08:51;97842.91;;;25.20;64.67
40982;BME280;26708;50.304;19.028;2022-08-19T05:11:53;97822.34;;;25.08;63.87
40982;BME280;26708;50.304;19.028;2022-08-19T05:14:54;97827.19;;;25.16;64.32
40982;BME280;26708;50.304;19.028;2022-08-19T05:17:57;97841.22;;;25.35;64.50
40982;BME280;26708;50.304;19.028;2022-08-19T05:21:18;97841.69;;;25.41;64.10
40982;BME280;26708;50.304;19.028;2022-08-19T05:24:38;97838.94;;;25.43;63.55
40982;BME280;26708;50.304;19.028;2022-08-19T05:27:41;97827.41;;;25.42;63.74
40982;BME280;26708;50.304;19.028;2022-08-19T05:30:44;97836.53;;;25.52;63.60
40982;BME280;26708;50.304;19.028;2022-08-19T05:33:47;97854.56;;;25.63;63.17
40982;BME280;26708;50.304;19.028;2022-08-19T05:36:49;97861.44;;;25.67;63.35
40982;BME280;26708;50.304;19.028;2022-08-19T05:39:50;97859.25;;;25.73;63.18
40982;BME280;26708;50.304;19.028;2022-08-19T05:42:54;97857.84;;;25.82;62.81
40982;BME280;26708;50.304;19.028;2022-08-19T05:45:55;97793.47;;;25.44;62.18
40982;BME280;26708;50.304;19.028;2022-08-19T05:48:56;97865.22;;;25.92;62.35
40982;BME280;26708;50.304;19.028;2022-08-19T05:51:57;97842.50;;;25.85;62.10
40982;BME280;26708;50.304;19.028;2022-08-19T05:55:01;97864.28;;;26.07;62.28
40982;BME280;26708;50.304;19.028;2022-08-19T05:58:01;97862.06;;;26.14;61.45
40982;BME280;26708;50.304;19.028;2022-08-19T06:01:04;97855.56;;;26.18;61.89
40982;BME280;26708;50.304;19.028;2022-08-19T06:04:06;97855.19;;;26.24;61.62
40982;BME280;26708;50.304;19.028;2022-08-19T06:07:07;97861.09;;;26.29;61.85
40982;BME280;26708;50.304;19.028;2022-08-19T06:10:10;97859.19;;;26.31;62.20
40982;BME280;26708;50.304;19.028;2022-08-19T06:13:11;97863.09;;;26.39;61.50
40982;BME280;26708;50.304;19.028;2022-08-19T06:16:13;97838.38;;;26.36;61.17
40982;BME280;26708;50.304;19.028;2022-08-19T06:19:22;97854.47;;;26.48;61.01
40982;BME280;26708;50.304;19.028;2022-08-19T06:22:24;97852.78;;;26.47;61.30
40982;BME280;26708;50.304;19.028;2022-08-19T06:25:25;97882.34;;;26.58;60.66
40982;BME280;26708;50.304;19.028;2022-08-19T06:28:38;97839.06;;;26.39;60.79
40982;BME280;26708;50.304;19.028;2022-08-19T06:31:45;97862.03;;;26.56;61.11
40982;BME280;26708;50.304;19.028;2022-08-19T06:34:46;97879.28;;;26.64;61.01
40982;BME280;26708;50.304;19.028;2022-08-19T06:37:47;97870.09;;;26.68;60.56
40982;BME280;26708;50.304;19.028;2022-08-19T06:40:48;97868.59;;;26.64;60.64
40982;BME280;26708;50.304;19.028;2022-08-19T06:43:49;97862.81;;;26.58;60.57
40982;BME280;26708;50.304;19.028;2022-08-19T06:46:51;97895.47;;;26.75;60.64
40982;BME280;26708;50.304;19.028;2022-08-19T06:49:56;97884.78;;;26.75;60.51
40982;BME280;26708;50.304;19.028;2022-08-19T06:53:00;97893.75;;;26.74;60.72
40982;BME280;26708;50.304;19.028;2022-08-19T06:56:03;97898.19;;;26.88;60.82
40982;BME280;26708;50.304;19.028;2022-08-19T06:59:10;97892.97;;;26.86;60.60
40982;BME280;26708;50.304;19.028;2022-08-19T07:02:12;97906.25;;;27.00;60.32
40982;BME280;26708;50.304;19.028;2022-08-19T07:05:15;97906.75;;;27.07;60.59
40982;BME280;26708;50.304;19.028;2022-08-19T07:08:17;97911.69;;;27.13;60.55
40982;BME280;26708;50.304;19.028;2022-08-19T07:11:18;97886.81;;;26.98;60.41
40982;BME280;26708;50.304;19.028;2022-08-19T07:14:23;97914.63;;;27.22;60.45
40982;BME280;26708;50.304;19.028;2022-08-19T07:17:25;97912.50;;;27.27;60.24
40982;BME280;26708;50.304;19.028;2022-08-19T07:20:26;97930.63;;;27.36;60.41
40982;BME280;26708;50.304;19.028;2022-08-19T07:23:27;97936.41;;;27.43;60.92
40982;BME280;26708;50.304;19.028;2022-08-19T07:26:30;97925.34;;;27.35;60.71
40982;BME280;26708;50.304;19.028;2022-08-19T07:29:34;97939.25;;;27.54;60.06
40982;BME280;26708;50.304;19.028;2022-08-19T07:32:35;97933.47;;;27.60;59.61
40982;BME280;26708;50.304;19.028;2022-08-19T07:35:37;97914.41;;;27.52;59.99
40982;BME280;26708;50.304;19.028;2022-08-19T07:38:41;97910.63;;;27.54;59.40
40982;BME280;26708;50.304;19.028;2022-08-19T07:41:43;97951.97;;;27.77;58.67
40982;BME280;26708;50.304;19.028;2022-08-19T07:44:43;97951.53;;;27.83;59.16
40982;BME280;26708;50.304;19.028;2022-08-19T07:47:44;97934.19;;;27.76;59.47
40982;BME280;26708;50.304;19.028;2022-08-19T07:50:46;97926.22;;;27.74;58.23
40982;BME280;26708;50.304;19.028;2022-08-19T07:53:49;97942.75;;;27.93;57.88
40982;BME280;26708;50.304;19.028;2022-08-19T07:56:50;97958.00;;;28.05;57.75
40982;BME280;26708;50.304;19.028;2022-08-19T07:59:51;97962.06;;;28.11;57.19
40982;BME280;26708;50.304;19.028;2022-08-19T08:02:54;97955.41;;;28.16;57.22
40982;BME280;26708;50.304;19.028;2022-08-19T08:05:55;97963.91;;;28.23;56.94
40982;BME280;26708;50.304;19.028;2022-08-19T08:09:18;97957.34;;;28.27;56.99
40982;BME280;26708;50.304;19.028;2022-08-19T08:12:26;97972.16;;;28.32;56.40
40982;BME280;26708;50.304;19.028;2022-08-19T08:15:28;97975.38;;;28.37;56.24
40982;BME280;26708;50.304;19.028;2022-08-19T08:18:29;97965.53;;;28.38;56.57
40982;BME280;26708;50.304;19.028;2022-08-19T08:21:30;97963.28;;;28.44;56.30
40982;BME280;26708;50.304;19.028;2022-08-19T08:24:31;97959.53;;;28.47;56.05
40982;BME280;26708;50.304;19.028;2022-08-19T08:27:36;97968.53;;;28.58;55.05
40982;BME280;26708;50.304;19.028;2022-08-19T08:30:37;97974.28;;;28.64;54.86
40982;BME280;26708;50.304;19.028;2022-08-19T08:33:41;97944.94;;;28.63;54.31
40982;BME280;26708;50.304;19.028;2022-08-19T08:36:44;97953.69;;;28.77;54.34
40982;BME280;26708;50.304;19.028;2022-08-19T08:39:46;97951.84;;;28.78;54.63
40982;BME280;26708;50.304;19.028;2022-08-19T08:42:55;97958.03;;;28.91;54.72
40982;BME280;26708;50.304;19.028;2022-08-19T08:52:45;97956.28;;;29.15;53.93
40982;BME280;26708;50.304;19.028;2022-08-19T08:55:46;97946.69;;;29.23;52.27
40982;BME280;26708;50.304;19.028;2022-08-19T08:59:04;97936.47;;;29.28;51.63
40982;BME280;26708;50.304;19.028;2022-08-19T09:02:08;97919.06;;;29.34;52.15
40982;BME280;26708;50.304;19.028;2022-08-19T09:05:11;97919.34;;;29.42;51.62
40982;BME280;26708;50.304;19.028;2022-08-19T09:08:27;97924.06;;;29.51;51.43
40982;BME280;26708;50.304;19.028;2022-08-19T09:12:25;97924.44;;;29.57;52.64
40982;BME280;26708;50.304;19.028;2022-08-19T09:15:25;97915.66;;;29.55;52.41
40982;BME280;26708;50.304;19.028;2022-08-19T09:21:41;97938.13;;;29.65;52.94
40982;BME280;26708;50.304;19.028;2022-08-19T09:24:42;97922.47;;;29.59;52.57
40982;BME280;26708;50.304;19.028;2022-08-19T09:27:44;97838.97;;;29.17;51.78
40982;BME280;26708;50.304;19.028;2022-08-19T09:30:45;97897.38;;;29.48;52.13
40982;BME280;26708;50.304;19.028;2022-08-19T09:33:47;97933.50;;;29.67;52.02
40982;BME280;26708;50.304;19.028;2022-08-19T09:36:49;97929.72;;;29.70;52.67
40982;BME280;26708;50.304;19.028;2022-08-19T09:39:54;97926.94;;;29.71;51.77
40982;BME280;26708;50.304;19.028;2022-08-19T09:42:55;97922.28;;;29.73;49.11
40982;BME280;26708;50.304;19.028;2022-08-19T09:45:58;97913.16;;;29.76;48.27
40982;BME280;26708;50.304;19.028;2022-08-19T09:49:02;97938.47;;;29.95;49.17
40982;BME280;26708;50.304;19.028;2022-08-19T09:52:05;97942.03;;;29.96;49.30
40982;BME280;26708;50.304;19.028;2022-08-19T09:55:10;97942.41;;;30.02;49.16
40982;BME280;26708;50.304;19.028;2022-08-19T09:58:11;97941.50;;;30.14;49.44
40982;BME280;26708;50.304;19.028;2022-08-19T10:01:23;97942.47;;;30.24;50.06
40982;BME280;26708;50.304;19.028;2022-08-19T10:04:25;97944.69;;;30.30;48.44
40982;BME280;26708;50.304;19.028;2022-08-19T10:07:45;97941.50;;;30.36;48.04
40982;BME280;26708;50.304;19.028;2022-08-19T10:10:48;97910.94;;;30.26;47.57
40982;BME280;26708;50.304;19.028;2022-08-19T10:13:50;97941.25;;;30.50;47.19
40982;BME280;26708;50.304;19.028;2022-08-19T10:16:52;97940.53;;;30.59;47.26
40982;BME280;26708;50.304;19.028;2022-08-19T10:19:55;97920.38;;;30.54;47.67
40982;BME280;26708;50.304;19.028;2022-08-19T10:22:56;97892.63;;;30.42;47.13
40982;BME280;26708;50.304;19.028;2022-08-19T10:25:59;97942.03;;;30.74;47.73
40982;BME280;26708;50.304;19.028;2022-08-19T10:29:00;97939.44;;;30.84;48.43
40982;BME280;26708;50.304;19.028;2022-08-19T10:32:05;97945.06;;;30.92;45.27
40982;BME280;26708;50.304;19.028;2022-08-19T10:35:08;97922.22;;;30.86;44.17
40982;BME280;26708;50.304;19.028;2022-08-19T10:38:09;97909.13;;;30.82;44.02
40982;BME280;26708;50.304;19.028;2022-08-19T10:41:16;97932.94;;;31.08;44.56
40982;BME280;26708;50.304;19.028;2022-08-19T10:44:17;97928.78;;;31.15;45.13
40982;BME280;26708;50.304;19.028;2022-08-19T10:47:18;97909.31;;;31.12;44.59
40982;BME280;26708;50.304;19.028;2022-08-19T10:50:19;97924.75;;;31.21;44.69
40982;BME280;26708;50.304;19.028;2022-08-19T10:53:43;97895.72;;;31.13;44.23
40982;BME280;26708;50.304;19.028;2022-08-19T10:56:44;97914.44;;;31.26;44.10
40982;BME280;26708;50.304;19.028;2022-08-19T10:59:56;97893.28;;;31.21;43.67
40982;BME280;26708;50.304;19.028;2022-08-19T11:02:57;97905.00;;;31.31;44.99
40982;BME280;26708;50.304;19.028;2022-08-19T11:06:00;97900.22;;;31.35;43.55
40982;BME280;26708;50.304;19.028;2022-08-19T11:09:02;97883.28;;;31.44;43.53
40982;BME280;26708;50.304;19.028;2022-08-19T11:12:03;97901.25;;;31.54;43.94
40982;BME280;26708;50.304;19.028;2022-08-19T11:15:07;97896.19;;;31.61;43.35
40982;BME280;26708;50.304;19.028;2022-08-19T11:18:08;97892.38;;;31.63;44.42
40982;BME280;26708;50.304;19.028;2022-08-19T11:24:22;97882.00;;;31.59;44.60
40982;BME280;26708;50.304;19.028;2022-08-19T11:27:23;97902.88;;;31.77;44.27
40982;BME280;26708;50.304;19.028;2022-08-19T11:30:24;97896.22;;;31.81;43.86
40982;BME280;26708;50.304;19.028;2022-08-19T11:33:24;97897.53;;;31.87;43.06
40982;BME280;26708;50.304;19.028;2022-08-19T11:36:27;97879.66;;;31.86;43.12
40982;BME280;26708;50.304;19.028;2022-08-19T11:39:34;97875.25;;;31.85;42.62
40982;BME280;26708;50.304;19.028;2022-08-19T11:42:35;97891.94;;;31.99;42.17
40982;BME280;26708;50.304;19.028;2022-08-19T11:45:55;97889.00;;;32.02;42.36
40982;BME280;26708;50.304;19.028;2022-08-19T11:48:57;97896.56;;;32.08;41.10
40982;BME280;26708;50.304;19.028;2022-08-19T11:51:59;97897.59;;;32.17;41.92
40982;BME280;26708;50.304;19.028;2022-08-19T11:55:00;97901.63;;;32.22;41.49
40982;BME280;26708;50.304;19.028;2022-08-19T11:58:00;97890.00;;;32.22;39.32
40982;BME280;26708;50.304;19.028;2022-08-19T12:01:05;97888.06;;;32.33;39.58
40982;BME280;26708;50.304;19.028;2022-08-19T12:04:07;97898.44;;;32.38;38.23
40982;BME280;26708;50.304;19.028;2022-08-19T12:07:07;97901.44;;;32.44;38.64
40982;BME280;26708;50.304;19.028;2022-08-19T12:10:08;97900.59;;;32.44;39.00
40982;BME280;26708;50.304;19.028;2022-08-19T12:13:09;97899.88;;;32.42;39.08
40982;BME280;26708;50.304;19.028;2022-08-19T12:16:20;97889.19;;;32.31;38.99
40982;BME280;26708;50.304;19.028;2022-08-19T12:19:24;97896.16;;;32.33;39.67
40982;BME280;26708;50.304;19.028;2022-08-19T12:22:25;97883.84;;;32.20;39.28
40982;BME280;26708;50.304;19.028;2022-08-19T12:25:26;97871.03;;;32.12;39.71
40982;BME280;26708;50.304;19.028;2022-08-19T12:28:26;97869.78;;;32.16;39.62
40982;BME280;26708;50.304;19.028;2022-08-19T12:31:37;97886.75;;;32.28;40.28
40982;BME280;26708;50.304;19.028;2022-08-19T12:34:38;97846.06;;;32.10;40.04
40982;BME280;26708;50.304;19.028;2022-08-19T12:37:40;97844.66;;;32.16;39.53
40982;BME280;26708;50.304;19.028;2022-08-19T12:40:45;97871.88;;;32.33;39.57
40982;BME280;26708;50.304;19.028;2022-08-19T12:43:46;97872.59;;;32.35;39.49
40982;BME280;26708;50.304;19.028;2022-08-19T12:46:49;97866.63;;;32.32;39.93
40982;BME280;26708;50.304;19.028;2022-08-19T12:49:50;97856.53;;;32.34;39.85
40982;BME280;26708;50.304;19.028;2022-08-19T12:52:52;97829.41;;;32.26;39.48
40982;BME280;26708;50.304;19.028;2022-08-19T12:55:59;97857.56;;;32.42;39.96
40982;BME280;26708;50.304;19.028;2022-08-19T12:59:01;97848.50;;;32.43;40.67
40982;BME280;26708;50.304;19.028;2022-08-19T13:02:04;97845.97;;;32.51;40.13
40982;BME280;26708;50.304;19.028;2022-08-19T13:05:09;97857.91;;;32.58;39.88
40982;BME280;26708;50.304;19.028;2022-08-19T13:08:11;97852.53;;;32.58;40.11
40982;BME280;26708;50.304;19.028;2022-08-19T13:11:14;97846.00;;;32.61;40.52
40982;BME280;26708;50.304;19.028;2022-08-19T13:14:15;97851.66;;;32.58;40.61
40982;BME280;26708;50.304;19.028;2022-08-19T13:17:16;97836.63;;;32.55;40.63
40982;BME280;26708;50.304;19.028;2022-08-19T13:20:19;97845.69;;;32.54;40.38
40982;BME280;26708;50.304;19.028;2022-08-19T13:23:20;97840.84;;;32.48;40.77
40982;BME280;26708;50.304;19.028;2022-08-19T13:26:21;97856.75;;;32.51;40.06
40982;BME280;26708;50.304;19.028;2022-08-19T13:29:22;97856.75;;;32.51;41.00
40982;BME280;26708;50.304;19.028;2022-08-19T13:32:41;97855.19;;;32.49;40.09
40982;BME280;26708;50.304;19.028;2022-08-19T13:36:01;97850.78;;;32.48;40.09
40982;BME280;26708;50.304;19.028;2022-08-19T13:39:04;97848.06;;;32.48;39.42
40982;BME280;26708;50.304;19.028;2022-08-19T13:42:05;97849.06;;;32.47;40.18
40982;BME280;26708;50.304;19.028;2022-08-19T13:45:07;97842.69;;;32.48;39.78
40982;BME280;26708;50.304;19.028;2022-08-19T13:48:08;97837.34;;;32.57;39.88
40982;BME280;26708;50.304;19.028;2022-08-19T13:51:09;97828.53;;;32.55;39.75
40982;BME280;26708;50.304;19.028;2022-08-19T13:54:11;97841.19;;;32.64;39.49
40982;BME280;26708;50.304;19.028;2022-08-19T13:57:12;97839.78;;;32.70;40.23
40982;BME280;26708;50.304;19.028;2022-08-19T14:00:16;97835.56;;;32.77;39.68
40982;BME280;26708;50.304;19.028;2022-08-19T14:03:18;97839.56;;;32.82;39.97
40982;BME280;26708;50.304;19.028;2022-08-19T14:06:19;97841.13;;;32.85;39.73
40982;BME280;26708;50.304;19.028;2022-08-19T14:09:20;97829.63;;;32.83;40.26
40982;BME280;26708;50.304;19.028;2022-08-19T14:12:21;97826.63;;;32.86;39.74
40982;BME280;26708;50.304;19.028;2022-08-19T14:15:22;97829.19;;;32.87;39.41
40982;BME280;26708;50.304;19.028;2022-08-19T14:18:23;97832.19;;;32.94;38.97
40982;BME280;26708;50.304;19.028;2022-08-19T14:21:25;97812.00;;;32.88;38.90
40982;BME280;26708;50.304;19.028;2022-08-19T14:24:26;97815.00;;;32.95;38.40
40982;BME280;26708;50.304;19.028;2022-08-19T14:27:27;97785.03;;;32.88;39.31
40982;BME280;26708;50.304;19.028;2022-08-19T14:30:31;97803.94;;;32.98;38.53
40982;BME280;26708;50.304;19.028;2022-08-19T14:33:31;97801.06;;;32.99;39.78
40982;BME280;26708;50.304;19.028;2022-08-19T14:36:33;97801.81;;;33.01;39.06
40982;BME280;26708;50.304;19.028;2022-08-19T14:39:35;97802.78;;;33.00;38.91
40982;BME280;26708;50.304;19.028;2022-08-19T14:42:36;97780.06;;;32.93;39.45
40982;BME280;26708;50.304;19.028;2022-08-19T14:45:38;97800.06;;;33.00;39.10
40982;BME280;26708;50.304;19.028;2022-08-19T14:48:39;97788.44;;;33.00;39.65
40982;BME280;26708;50.304;19.028;2022-08-19T14:51:40;97792.13;;;32.99;39.43
40982;BME280;26708;50.304;19.028;2022-08-19T14:54:41;97776.06;;;32.97;39.33
40982;BME280;26708;50.304;19.028;2022-08-19T14:57:42;97780.47;;;32.98;38.97
40982;BME280;26708;50.304;19.028;2022-08-19T15:00:43;97760.28;;;32.93;38.84
40982;BME280;26708;50.304;19.028;2022-08-19T15:03:44;97762.88;;;32.94;39.31
40982;BME280;26708;50.304;19.028;2022-08-19T15:06:44;97765.97;;;32.99;39.43
40982;BME280;26708;50.304;19.028;2022-08-19T15:09:49;97756.88;;;33.00;39.64
40982;BME280;26708;50.304;19.028;2022-08-19T15:12:50;97755.16;;;32.99;39.93
40982;BME280;26708;50.304;19.028;2022-08-19T15:15:50;97752.63;;;32.98;39.71
40982;BME280;26708;50.304;19.028;2022-08-19T15:18:55;97752.19;;;32.93;39.47
40982;BME280;26708;50.304;19.028;2022-08-19T15:21:56;97759.16;;;32.95;39.47
40982;BME280;26708;50.304;19.028;2022-08-19T15:24:57;97747.81;;;32.92;39.05
40982;BME280;26708;50.304;19.028;2022-08-19T15:27:58;97759.00;;;32.97;39.21
40982;BME280;26708;50.304;19.028;2022-08-19T15:31:00;97747.50;;;32.95;39.38
40982;BME280;26708;50.304;19.028;2022-08-19T15:34:02;97746.38;;;32.97;39.64
40982;BME280;26708;50.304;19.028;2022-08-19T15:37:06;97737.41;;;32.97;39.58
40982;BME280;26708;50.304;19.028;2022-08-19T15:40:07;97723.06;;;32.96;39.75
40982;BME280;26708;50.304;19.028;2022-08-19T15:43:09;97716.97;;;32.94;39.67
40982;BME280;26708;50.304;19.028;2022-08-19T15:46:10;97726.06;;;32.93;39.49
40982;BME280;26708;50.304;19.028;2022-08-19T15:49:12;97724.94;;;32.86;39.91
40982;BME280;26708;50.304;19.028;2022-08-19T15:52:13;97736.69;;;32.85;39.89
40982;BME280;26708;50.304;19.028;2022-08-19T15:55:14;97732.47;;;32.83;39.58
40982;BME280;26708;50.304;19.028;2022-08-19T15:58:15;97743.25;;;32.83;39.38
40982;BME280;26708;50.304;19.028;2022-08-19T16:01:34;97758.59;;;32.82;39.82
40982;BME280;26708;50.304;19.028;2022-08-19T16:04:53;97758.13;;;32.77;40.03
40982;BME280;26708;50.304;19.028;2022-08-19T16:08:12;97758.31;;;32.76;39.50
40982;BME280;26708;50.304;19.028;2022-08-19T16:11:18;97763.09;;;32.72;39.60